sensor_id;sensor_type;location;lat;lon;timestamp;P1;durP1;ratioP1;P2;durP2;ratioP2
76894;SDS011;65855;42.030;13.078;2023-10-08T00:00:49;13.55;;;6.63;;
76894;SDS011;65855;42.030;13.078;2023-10-08T00:03:15;10.13;;;5.28;;
76894;SDS011;65855;42.030;13.078;2023-10-08T00:05:45;12.10;;;4.80;;
76894;SDS011;65855;42.030;13.078;2023-10-08T00:08:11;10.57;;;5.88;;
76894;SDS011;65855;42.030;13.078;2023-10-08T00:10:40;9.43;;;3.95;;
76894;SDS011;65855;42.030;13.078;2023-10-08T00:13:10;13.10;;;6.00;;
76894;SDS011;65855;42.030;13.078;2023-10-08T00:15:40;10.52;;;4.20;;
76894;SDS011;65855;42.030;13.078;2023-10-08T00:18:20;11.48;;;5.50;;
76894;SDS011;65855;42.030;13.078;2023-10-08T00:20:48;10.38;;;5.68;;
76894;SDS011;65855;42.030;13.078;2023-10-08T00:23:23;11.52;;;6.03;;
76894;SDS011;65855;42.030;13.078;2023-10-08T00:25:54;12.52;;;5.78;;
76894;SDS011;65855;42.030;13.078;2023-10-08T00:28:20;12.93;;;4.97;;
76894;SDS011;65855;42.030;13.078;2023-10-08T00:30:46;10.95;;;5.28;;
76894;SDS011;65855;42.030;13.078;2023-10-08T00:33:13;13.93;;;7.38;;
76894;SDS011;65855;42.030;13.078;2023-10-08T00:35:39;11.90;;;5.75;;
76894;SDS011;65855;42.030;13.078;2023-10-08T00:38:06;12.38;;;6.35;;
76894;SDS011;65855;42.030;13.078;2023-10-08T00:40:40;9.77;;;4.60;;
76894;SDS011;65855;42.030;13.078;2023-10-08T00:43:10;11.02;;;6.35;;
76894;SDS011;65855;42.030;13.078;2023-10-08T00:45:37;10.65;;;4.72;;
76894;SDS011;65855;42.030;13.078;2023-10-08T00:50:35;10.60;;;5.80;;
76894;SDS011;65855;42.030;13.078;2023-10-08T00:53:07;10.98;;;5.88;;
76894;SDS011;65855;42.030;13.078;2023-10-08T00:55:42;10.90;;;4.70;;
76894;SDS011;65855;42.030;13.078;2023-10-08T00:58:15;11.10;;;4.55;;
76894;SDS011;65855;42.030;13.078;2023-10-08T01:00:50;11.27;;;3.83;;
76894;SDS011;65855;42.030;13.078;2023-10-08T01:03:22;9.13;;;4.95;;
76894;SDS011;65855;42.030;13.078;2023-10-08T01:05:47;10.52;;;3.90;;
76894;SDS011;65855;42.030;13.078;2023-10-08T01:08:13;10.30;;;5.63;;
76894;SDS011;65855;42.030;13.078;2023-10-08T01:10:43;10.52;;;3.95;;
76894;SDS011;65855;42.030;13.078;2023-10-08T01:13:12;11.10;;;5.82;;
76894;SDS011;65855;42.030;13.078;2023-10-08T01:15:45;12.00;;;4.50;;
76894;SDS011;65855;42.030;13.078;2023-10-08T01:18:15;11.25;;;5.97;;
76894;SDS011;65855;42.030;13.078;2023-10-08T01:20:41;11.70;;;5.38;;
76894;SDS011;65855;42.030;13.078;2023-10-08T01:23:12;9.95;;;5.05;;
76894;SDS011;65855;42.030;13.078;2023-10-08T01:25:41;14.77;;;3.72;;
76894;SDS011;65855;42.030;13.078;2023-10-08T01:28:07;9.02;;;5.03;;
76894;SDS011;65855;42.030;13.078;2023-10-08T01:30:39;8.50;;;4.80;;
76894;SDS011;65855;42.030;13.078;2023-10-08T01:33:12;10.65;;;5.32;;
76894;SDS011;65855;42.030;13.078;2023-10-08T01:35:39;10.68;;;5.57;;
76894;SDS011;65855;42.030;13.078;2023-10-08T01:38:05;10.25;;;5.28;;
76894;SDS011;65855;42.030;13.078;2023-10-08T01:40:31;10.48;;;3.97;;
76894;SDS011;65855;42.030;13.078;2023-10-08T01:42:57;9.00;;;3.40;;
76894;SDS011;65855;42.030;13.078;2023-10-08T01:45:25;11.23;;;3.70;;
76894;SDS011;65855;42.030;13.078;2023-10-08T01:47:51;9.43;;;3.53;;
76894;SDS011;65855;42.030;13.078;2023-10-08T01:50:20;9.13;;;4.93;;
76894;SDS011;65855;42.030;13.078;2023-10-08T01:52:54;9.90;;;3.63;;
76894;SDS011;65855;42.030;13.078;2023-10-08T01:55:20;9.23;;;2.95;;
76894;SDS011;65855;42.030;13.078;2023-10-08T01:57:47;10.35;;;3.58;;
76894;SDS011;65855;42.030;13.078;2023-10-08T02:00:14;10.90;;;3.35;;
76894;SDS011;65855;42.030;13.078;2023-10-08T02:02:47;10.77;;;5.75;;
76894;SDS011;65855;42.030;13.078;2023-10-08T02:05:19;10.02;;;3.58;;
76894;SDS011;65855;42.030;13.078;2023-10-08T02:07:46;11.07;;;5.47;;
76894;SDS011;65855;42.030;13.078;2023-10-08T02:10:11;11.02;;;5.72;;
76894;SDS011;65855;42.030;13.078;2023-10-08T02:12:39;8.85;;;3.70;;
76894;SDS011;65855;42.030;13.078;2023-10-08T02:15:04;9.02;;;3.45;;
76894;SDS011;65855;42.030;13.078;2023-10-08T02:17:32;11.82;;;5.57;;
76894;SDS011;65855;42.030;13.078;2023-10-08T02:19:57;9.32;;;4.50;;
76894;SDS011;65855;42.030;13.078;2023-10-08T02:22:23;10.70;;;6.70;;
76894;SDS011;65855;42.030;13.078;2023-10-08T02:24:48;7.88;;;3.33;;
76894;SDS011;65855;42.030;13.078;2023-10-08T02:27:16;10.38;;;4.95;;
76894;SDS011;65855;42.030;13.078;2023-10-08T02:29:41;9.90;;;3.67;;
76894;SDS011;65855;42.030;13.078;2023-10-08T02:32:07;10.05;;;4.78;;
76894;SDS011;65855;42.030;13.078;2023-10-08T02:34:33;11.27;;;4.00;;
76894;SDS011;65855;42.030;13.078;2023-10-08T02:37:00;10.23;;;4.85;;
76894;SDS011;65855;42.030;13.078;2023-10-08T02:39:28;7.43;;;2.97;;
76894;SDS011;65855;42.030;13.078;2023-10-08T02:41:55;8.15;;;3.58;;
76894;SDS011;65855;42.030;13.078;2023-10-08T02:44:24;8.50;;;3.35;;
76894;SDS011;65855;42.030;13.078;2023-10-08T02:46:49;9.65;;;5.28;;
76894;SDS011;65855;42.030;13.078;2023-10-08T02:49:19;9.75;;;4.60;;
76894;SDS011;65855;42.030;13.078;2023-10-08T02:51:50;8.02;;;3.05;;
76894;SDS011;65855;42.030;13.078;2023-10-08T02:54:17;6.55;;;2.97;;
76894;SDS011;65855;42.030;13.078;2023-10-08T02:56:49;8.20;;;2.55;;
76894;SDS011;65855;42.030;13.078;2023-10-08T02:59:19;10.32;;;4.88;;
76894;SDS011;65855;42.030;13.078;2023-10-08T03:01:47;8.63;;;4.25;;
76894;SDS011;65855;42.030;13.078;2023-10-08T03:04:15;8.88;;;4.25;;
76894;SDS011;65855;42.030;13.078;2023-10-08T03:06:46;8.85;;;4.07;;
76894;SDS011;65855;42.030;13.078;2023-10-08T03:09:18;7.05;;;2.55;;
76894;SDS011;65855;42.030;13.078;2023-10-08T03:11:49;7.80;;;2.95;;
76894;SDS011;65855;42.030;13.078;2023-10-08T03:14:16;10.30;;;3.25;;
76894;SDS011;65855;42.030;13.078;2023-10-08T03:16:52;9.65;;;3.50;;
76894;SDS011;65855;42.030;13.078;2023-10-08T03:19:18;8.60;;;3.65;;
76894;SDS011;65855;42.030;13.078;2023-10-08T03:21:48;9.20;;;3.28;;
76894;SDS011;65855;42.030;13.078;2023-10-08T03:24:20;7.85;;;2.78;;
76894;SDS011;65855;42.030;13.078;2023-10-08T03:27:02;9.68;;;4.30;;
76894;SDS011;65855;42.030;13.078;2023-10-08T03:29:35;7.38;;;2.72;;
76894;SDS011;65855;42.030;13.078;2023-10-08T03:32:16;10.05;;;4.15;;
76894;SDS011;65855;42.030;13.078;2023-10-08T03:34:45;9.50;;;3.20;;
76894;SDS011;65855;42.030;13.078;2023-10-08T03:37:15;7.72;;;3.55;;
76894;SDS011;65855;42.030;13.078;2023-10-08T03:39:49;11.52;;;2.10;;
76894;SDS011;65855;42.030;13.078;2023-10-08T03:42:26;7.75;;;2.78;;
76894;SDS011;65855;42.030;13.078;2023-10-08T03:45:05;4.70;;;1.65;;
76894;SDS011;65855;42.030;13.078;2023-10-08T03:47:37;5.68;;;3.05;;
76894;SDS011;65855;42.030;13.078;2023-10-08T03:50:07;6.28;;;2.80;;
76894;SDS011;65855;42.030;13.078;2023-10-08T03:52:36;6.38;;;2.10;;
76894;SDS011;65855;42.030;13.078;2023-10-08T03:55:06;7.45;;;2.38;;
76894;SDS011;65855;42.030;13.078;2023-10-08T03:57:43;8.32;;;2.60;;
76894;SDS011;65855;42.030;13.078;2023-10-08T04:00:13;10.15;;;2.83;;
76894;SDS011;65855;42.030;13.078;2023-10-08T04:02:47;8.88;;;2.92;;
76894;SDS011;65855;42.030;13.078;2023-10-08T04:05:25;9.48;;;2.92;;
76894;SDS011;65855;42.030;13.078;2023-10-08T04:08:05;8.32;;;2.78;;
76894;SDS011;65855;42.030;13.078;2023-10-08T04:10:42;8.32;;;4.03;;
76894;SDS011;65855;42.030;13.078;2023-10-08T04:13:08;8.20;;;4.00;;
76894;SDS011;65855;42.030;13.078;2023-10-08T04:15:38;10.48;;;4.43;;
76894;SDS011;65855;42.030;13.078;2023-10-08T04:18:09;9.43;;;2.90;;
76894;SDS011;65855;42.030;13.078;2023-10-08T04:20:36;8.57;;;3.30;;
76894;SDS011;65855;42.030;13.078;2023-10-08T04:23:05;7.53;;;3.83;;
76894;SDS011;65855;42.030;13.078;2023-10-08T04:25:38;6.95;;;2.53;;
76894;SDS011;65855;42.030;13.078;2023-10-08T04:28:04;8.38;;;4.88;;
76894;SDS011;65855;42.030;13.078;2023-10-08T04:30:34;8.57;;;2.67;;
76894;SDS011;65855;42.030;13.078;2023-10-08T04:35:35;7.55;;;2.63;;
76894;SDS011;65855;42.030;13.078;2023-10-08T04:38:04;7.10;;;2.55;;
76894;SDS011;65855;42.030;13.078;2023-10-08T04:40:34;6.80;;;2.50;;
76894;SDS011;65855;42.030;13.078;2023-10-08T04:43:16;5.65;;;2.30;;
76894;SDS011;65855;42.030;13.078;2023-10-08T04:45:56;6.93;;;2.47;;
76894;SDS011;65855;42.030;13.078;2023-10-08T04:48:23;6.07;;;2.15;;
76894;SDS011;65855;42.030;13.078;2023-10-08T04:50:56;9.40;;;3.03;;
76894;SDS011;65855;42.030;13.078;2023-10-08T04:53:25;6.70;;;2.65;;
76894;SDS011;65855;42.030;13.078;2023-10-08T04:56:12;7.03;;;2.63;;
76894;SDS011;65855;42.030;13.078;2023-10-08T04:58:58;7.32;;;3.72;;
76894;SDS011;65855;42.030;13.078;2023-10-08T05:01:23;13.73;;;2.97;;
76894;SDS011;65855;42.030;13.078;2023-10-08T05:04:03;7.97;;;3.15;;
76894;SDS011;65855;42.030;13.078;2023-10-08T05:06:30;8.40;;;3.30;;
76894;SDS011;65855;42.030;13.078;2023-10-08T05:08:59;7.32;;;2.83;;
76894;SDS011;65855;42.030;13.078;2023-10-08T05:11:35;7.28;;;3.30;;
76894;SDS011;65855;42.030;13.078;2023-10-08T05:14:19;6.45;;;2.67;;
76894;SDS011;65855;42.030;13.078;2023-10-08T05:17:01;10.05;;;4.45;;
76894;SDS011;65855;42.030;13.078;2023-10-08T05:19:45;8.63;;;2.60;;
76894;SDS011;65855;42.030;13.078;2023-10-08T05:22:23;4.25;;;1.83;;
76894;SDS011;65855;42.030;13.078;2023-10-08T05:25:09;8.10;;;3.03;;
76894;SDS011;65855;42.030;13.078;2023-10-08T05:27:35;6.28;;;3.92;;
76894;SDS011;65855;42.030;13.078;2023-10-08T05:30:30;7.68;;;3.90;;
76894;SDS011;65855;42.030;13.078;2023-10-08T05:33:18;5.68;;;2.88;;
76894;SDS011;65855;42.030;13.078;2023-10-08T05:35:50;5.07;;;1.83;;
76894;SDS011;65855;42.030;13.078;2023-10-08T05:40:48;5.20;;;3.10;;
76894;SDS011;65855;42.030;13.078;2023-10-08T05:43:27;4.63;;;2.45;;
76894;SDS011;65855;42.030;13.078;2023-10-08T05:51:30;7.40;;;2.03;;
76894;SDS011;65855;42.030;13.078;2023-10-08T05:54:21;10.77;;;3.88;;
76894;SDS011;65855;42.030;13.078;2023-10-08T05:57:10;7.80;;;3.40;;
76894;SDS011;65855;42.030;13.078;2023-10-08T05:59:39;5.20;;;2.42;;
76894;SDS011;65855;42.030;13.078;2023-10-08T06:02:20;7.90;;;2.20;;
76894;SDS011;65855;42.030;13.078;2023-10-08T06:04:58;7.28;;;3.72;;
76894;SDS011;65855;42.030;13.078;2023-10-08T06:07:46;7.75;;;2.03;;
76894;SDS011;65855;42.030;13.078;2023-10-08T06:10:14;8.35;;;3.15;;
76894;SDS011;65855;42.030;13.078;2023-10-08T06:12:55;8.45;;;3.67;;
76894;SDS011;65855;42.030;13.078;2023-10-08T06:18:30;9.23;;;2.88;;
76894;SDS011;65855;42.030;13.078;2023-10-08T06:23:37;9.63;;;4.28;;
76894;SDS011;65855;42.030;13.078;2023-10-08T06:26:04;8.02;;;3.08;;
76894;SDS011;65855;42.030;13.078;2023-10-08T06:28:35;8.07;;;3.40;;
76894;SDS011;65855;42.030;13.078;2023-10-08T06:31:03;9.48;;;3.42;;
76894;SDS011;65855;42.030;13.078;2023-10-08T06:33:36;9.77;;;3.35;;
76894;SDS011;65855;42.030;13.078;2023-10-08T06:36:03;9.00;;;2.75;;
76894;SDS011;65855;42.030;13.078;2023-10-08T06:38:41;7.85;;;3.72;;
76894;SDS011;65855;42.030;13.078;2023-10-08T06:41:14;9.93;;;4.10;;
76894;SDS011;65855;42.030;13.078;2023-10-08T06:43:43;8.18;;;3.33;;
76894;SDS011;65855;42.030;13.078;2023-10-08T06:46:30;7.32;;;2.50;;
76894;SDS011;65855;42.030;13.078;2023-10-08T06:48:59;8.48;;;2.25;;
76894;SDS011;65855;42.030;13.078;2023-10-08T06:51:25;7.05;;;2.17;;
76894;SDS011;65855;42.030;13.078;2023-10-08T06:53:51;9.18;;;2.47;;
76894;SDS011;65855;42.030;13.078;2023-10-08T06:56:19;6.50;;;2.22;;
76894;SDS011;65855;42.030;13.078;2023-10-08T06:58:45;6.75;;;2.15;;
76894;SDS011;65855;42.030;13.078;2023-10-08T07:01:17;6.88;;;3.03;;
76894;SDS011;65855;42.030;13.078;2023-10-08T07:03:46;7.20;;;3.30;;
76894;SDS011;65855;42.030;13.078;2023-10-08T07:06:14;7.95;;;1.95;;
76894;SDS011;65855;42.030;13.078;2023-10-08T07:08:50;6.80;;;2.10;;
76894;SDS011;65855;42.030;13.078;2023-10-08T07:11:20;9.00;;;2.55;;
76894;SDS011;65855;42.030;13.078;2023-10-08T07:13:46;9.20;;;2.67;;
76894;SDS011;65855;42.030;13.078;2023-10-08T07:16:12;8.20;;;2.30;;
76894;SDS011;65855;42.030;13.078;2023-10-08T07:18:42;7.45;;;2.20;;
76894;SDS011;65855;42.030;13.078;2023-10-08T07:21:16;8.07;;;2.20;;
76894;SDS011;65855;42.030;13.078;2023-10-08T07:23:41;5.90;;;1.92;;
76894;SDS011;65855;42.030;13.078;2023-10-08T07:26:24;5.68;;;1.95;;
76894;SDS011;65855;42.030;13.078;2023-10-08T07:29:01;9.73;;;2.33;;
76894;SDS011;65855;42.030;13.078;2023-10-08T07:31:33;8.50;;;2.95;;
76894;SDS011;65855;42.030;13.078;2023-10-08T07:33:59;9.30;;;2.58;;
76894;SDS011;65855;42.030;13.078;2023-10-08T07:36:40;8.05;;;4.05;;
76894;SDS011;65855;42.030;13.078;2023-10-08T07:39:07;9.77;;;3.75;;
76894;SDS011;65855;42.030;13.078;2023-10-08T07:41:34;9.45;;;4.43;;
76894;SDS011;65855;42.030;13.078;2023-10-08T07:44:00;8.75;;;3.72;;
76894;SDS011;65855;42.030;13.078;2023-10-08T07:46:25;9.65;;;3.92;;
76894;SDS011;65855;42.030;13.078;2023-10-08T07:48:54;7.75;;;2.53;;
76894;SDS011;65855;42.030;13.078;2023-10-08T07:51:20;9.07;;;3.20;;
76894;SDS011;65855;42.030;13.078;2023-10-08T07:53:52;6.65;;;2.13;;
76894;SDS011;65855;42.030;13.078;2023-10-08T07:56:20;9.68;;;2.28;;
76894;SDS011;65855;42.030;13.078;2023-10-08T07:58:47;8.32;;;2.72;;
76894;SDS011;65855;42.030;13.078;2023-10-08T08:01:13;6.35;;;2.30;;
76894;SDS011;65855;42.030;13.078;2023-10-08T08:03:39;7.53;;;3.00;;
76894;SDS011;65855;42.030;13.078;2023-10-08T08:06:06;7.20;;;2.33;;
76894;SDS011;65855;42.030;13.078;2023-10-08T08:08:34;6.38;;;2.15;;
76894;SDS011;65855;42.030;13.078;2023-10-08T08:11:01;8.32;;;2.63;;
76894;SDS011;65855;42.030;13.078;2023-10-08T08:13:37;8.32;;;2.58;;
76894;SDS011;65855;42.030;13.078;2023-10-08T08:16:11;7.13;;;2.70;;
76894;SDS011;65855;42.030;13.078;2023-10-08T08:18:44;6.60;;;2.35;;
76894;SDS011;65855;42.030;13.078;2023-10-08T08:21:10;7.00;;;2.33;;
76894;SDS011;65855;42.030;13.078;2023-10-08T08:23:43;7.03;;;1.98;;
76894;SDS011;65855;42.030;13.078;2023-10-08T08:26:21;6.03;;;3.08;;
76894;SDS011;65855;42.030;13.078;2023-10-08T08:28:57;8.15;;;2.88;;
76894;SDS011;65855;42.030;13.078;2023-10-08T08:31:25;6.93;;;2.67;;
76894;SDS011;65855;42.030;13.078;2023-10-08T08:33:52;6.82;;;2.08;;
76894;SDS011;65855;42.030;13.078;2023-10-08T08:36:21;6.50;;;2.08;;
76894;SDS011;65855;42.030;13.078;2023-10-08T08:38:51;6.22;;;2.40;;
76894;SDS011;65855;42.030;13.078;2023-10-08T08:41:17;7.85;;;2.13;;
76894;SDS011;65855;42.030;13.078;2023-10-08T08:43:51;6.55;;;2.15;;
76894;SDS011;65855;42.030;13.078;2023-10-08T08:46:41;6.57;;;2.60;;
76894;SDS011;65855;42.030;13.078;2023-10-08T08:49:08;7.35;;;3.28;;
76894;SDS011;65855;42.030;13.078;2023-10-08T08:51:34;7.45;;;2.30;;
76894;SDS011;65855;42.030;13.078;2023-10-08T08:54:00;7.25;;;2.40;;
76894;SDS011;65855;42.030;13.078;2023-10-08T08:56:32;7.22;;;2.35;;
76894;SDS011;65855;42.030;13.078;2023-10-08T08:58:59;7.22;;;2.38;;
76894;SDS011;65855;42.030;13.078;2023-10-08T09:01:26;7.47;;;2.47;;
76894;SDS011;65855;42.030;13.078;2023-10-08T09:03:58;9.13;;;3.80;;
76894;SDS011;65855;42.030;13.078;2023-10-08T09:06:26;7.03;;;2.65;;
76894;SDS011;65855;42.030;13.078;2023-10-08T09:08:52;8.07;;;3.15;;
76894;SDS011;65855;42.030;13.078;2023-10-08T09:11:20;7.93;;;2.70;;
76894;SDS011;65855;42.030;13.078;2023-10-08T09:13:46;6.88;;;2.30;;
76894;SDS011;65855;42.030;13.078;2023-10-08T09:16:15;8.40;;;3.40;;
76894;SDS011;65855;42.030;13.078;2023-10-08T09:18:44;8.07;;;2.88;;
76894;SDS011;65855;42.030;13.078;2023-10-08T09:21:16;8.23;;;2.90;;
76894;SDS011;65855;42.030;13.078;2023-10-08T09:23:51;7.28;;;3.35;;
76894;SDS011;65855;42.030;13.078;2023-10-08T09:26:22;8.57;;;3.03;;
76894;SDS011;65855;42.030;13.078;2023-10-08T09:28:48;10.32;;;3.50;;
76894;SDS011;65855;42.030;13.078;2023-10-08T09:31:15;9.48;;;4.43;;
76894;SDS011;65855;42.030;13.078;2023-10-08T09:33:42;14.88;;;5.80;;
76894;SDS011;65855;42.030;13.078;2023-10-08T09:36:09;12.20;;;5.40;;
76894;SDS011;65855;42.030;13.078;2023-10-08T09:38:44;8.00;;;3.15;;
76894;SDS011;65855;42.030;13.078;2023-10-08T09:41:13;11.65;;;3.33;;
76894;SDS011;65855;42.030;13.078;2023-10-08T09:43:39;8.00;;;2.50;;
76894;SDS011;65855;42.030;13.078;2023-10-08T09:46:13;15.55;;;5.00;;
76894;SDS011;65855;42.030;13.078;2023-10-08T09:48:44;10.73;;;4.88;;
76894;SDS011;65855;42.030;13.078;2023-10-08T09:51:16;12.60;;;5.38;;
76894;SDS011;65855;42.030;13.078;2023-10-08T09:54:05;8.88;;;3.67;;
76894;SDS011;65855;42.030;13.078;2023-10-08T09:56:40;7.25;;;2.40;;
76894;SDS011;65855;42.030;13.078;2023-10-08T09:59:06;6.15;;;2.83;;
76894;SDS011;65855;42.030;13.078;2023-10-08T10:01:34;6.70;;;2.50;;
76894;SDS011;65855;42.030;13.078;2023-10-08T10:04:05;7.93;;;2.50;;
76894;SDS011;65855;42.030;13.078;2023-10-08T10:06:34;6.20;;;1.95;;
76894;SDS011;65855;42.030;13.078;2023-10-08T10:09:01;7.47;;;2.22;;
76894;SDS011;65855;42.030;13.078;2023-10-08T10:11:28;6.25;;;1.80;;
76894;SDS011;65855;42.030;13.078;2023-10-08T10:14:01;6.82;;;1.90;;
76894;SDS011;65855;42.030;13.078;2023-10-08T10:16:31;5.95;;;1.73;;
76894;SDS011;65855;42.030;13.078;2023-10-08T10:18:57;8.10;;;2.55;;
76894;SDS011;65855;42.030;13.078;2023-10-08T10:21:26;7.88;;;2.53;;
76894;SDS011;65855;42.030;13.078;2023-10-08T10:23:54;6.13;;;2.45;;
76894;SDS011;65855;42.030;13.078;2023-10-08T10:34:25;6.80;;;2.63;;
76894;SDS011;65855;42.030;13.078;2023-10-08T10:36:56;6.00;;;1.67;;
76894;SDS011;65855;42.030;13.078;2023-10-08T10:39:33;5.45;;;1.60;;
76894;SDS011;65855;42.030;13.078;2023-10-08T10:42:05;5.82;;;2.15;;
76894;SDS011;65855;42.030;13.078;2023-10-08T10:44:32;6.63;;;1.50;;
76894;SDS011;65855;42.030;13.078;2023-10-08T10:47:01;6.28;;;1.67;;
76894;SDS011;65855;42.030;13.078;2023-10-08T10:49:43;5.35;;;1.35;;
76894;SDS011;65855;42.030;13.078;2023-10-08T10:52:25;6.35;;;1.80;;
76894;SDS011;65855;42.030;13.078;2023-10-08T10:55:04;6.45;;;2.22;;
76894;SDS011;65855;42.030;13.078;2023-10-08T10:57:55;5.55;;;1.58;;
76894;SDS011;65855;42.030;13.078;2023-10-08T11:00:25;5.50;;;1.60;;
76894;SDS011;65855;42.030;13.078;2023-10-08T11:02:57;5.90;;;1.98;;
76894;SDS011;65855;42.030;13.078;2023-10-08T11:05:31;5.88;;;1.65;;
76894;SDS011;65855;42.030;13.078;2023-10-08T11:08:02;6.70;;;1.55;;
76894;SDS011;65855;42.030;13.078;2023-10-08T11:10:37;6.60;;;2.00;;
76894;SDS011;65855;42.030;13.078;2023-10-08T11:13:06;5.78;;;2.00;;
76894;SDS011;65855;42.030;13.078;2023-10-08T11:15:39;7.72;;;2.67;;
76894;SDS011;65855;42.030;13.078;2023-10-08T11:18:13;6.45;;;2.38;;
76894;SDS011;65855;42.030;13.078;2023-10-08T11:20:42;7.53;;;2.78;;
76894;SDS011;65855;42.030;13.078;2023-10-08T11:23:29;6.90;;;2.65;;
76894;SDS011;65855;42.030;13.078;2023-10-08T11:25:55;8.57;;;2.80;;
76894;SDS011;65855;42.030;13.078;2023-10-08T11:28:27;6.25;;;2.10;;
76894;SDS011;65855;42.030;13.078;2023-10-08T11:30:53;6.93;;;2.00;;
76894;SDS011;65855;42.030;13.078;2023-10-08T11:33:19;7.00;;;3.38;;
76894;SDS011;65855;42.030;13.078;2023-10-08T11:38:26;6.93;;;2.25;;
76894;SDS011;65855;42.030;13.078;2023-10-08T11:40:53;7.20;;;2.28;;
76894;SDS011;65855;42.030;13.078;2023-10-08T11:43:22;6.93;;;2.70;;
76894;SDS011;65855;42.030;13.078;2023-10-08T11:45:48;7.22;;;3.08;;
76894;SDS011;65855;42.030;13.078;2023-10-08T11:48:14;6.32;;;2.58;;
76894;SDS011;65855;42.030;13.078;2023-10-08T11:50:47;9.70;;;3.20;;
76894;SDS011;65855;42.030;13.078;2023-10-08T11:53:15;6.05;;;2.17;;
76894;SDS011;65855;42.030;13.078;2023-10-08T11:55:42;6.25;;;2.10;;
76894;SDS011;65855;42.030;13.078;2023-10-08T11:58:07;8.63;;;2.20;;
76894;SDS011;65855;42.030;13.078;2023-10-08T12:00:37;7.13;;;2.67;;
76894;SDS011;65855;42.030;13.078;2023-10-08T12:03:10;6.90;;;2.45;;
76894;SDS011;65855;42.030;13.078;2023-10-08T12:05:43;8.27;;;3.90;;
76894;SDS011;65855;42.030;13.078;2023-10-08T12:08:15;7.20;;;2.40;;
76894;SDS011;65855;42.030;13.078;2023-10-08T12:10:44;7.55;;;3.40;;
76894;SDS011;65855;42.030;13.078;2023-10-08T12:13:11;8.02;;;2.20;;
76894;SDS011;65855;42.030;13.078;2023-10-08T12:15:37;6.40;;;2.65;;
76894;SDS011;65855;42.030;13.078;2023-10-08T12:18:07;7.10;;;3.05;;
76894;SDS011;65855;42.030;13.078;2023-10-08T12:20:50;10.73;;;2.05;;
76894;SDS011;65855;42.030;13.078;2023-10-08T12:23:16;9.82;;;3.15;;
76894;SDS011;65855;42.030;13.078;2023-10-08T12:25:54;8.43;;;3.55;;
76894;SDS011;65855;42.030;13.078;2023-10-08T12:28:23;6.85;;;3.05;;
76894;SDS011;65855;42.030;13.078;2023-10-08T12:30:49;10.05;;;3.20;;
76894;SDS011;65855;42.030;13.078;2023-10-08T12:33:20;6.70;;;2.90;;
76894;SDS011;65855;42.030;13.078;2023-10-08T12:35:48;7.25;;;2.45;;
76894;SDS011;65855;42.030;13.078;2023-10-08T12:38:14;7.63;;;3.25;;
76894;SDS011;65855;42.030;13.078;2023-10-08T12:40:40;7.63;;;2.90;;
76894;SDS011;65855;42.030;13.078;2023-10-08T12:43:18;8.68;;;3.50;;
76894;SDS011;65855;42.030;13.078;2023-10-08T12:45:51;6.88;;;2.33;;
76894;SDS011;65855;42.030;13.078;2023-10-08T12:48:20;6.65;;;2.97;;
76894;SDS011;65855;42.030;13.078;2023-10-08T12:50:47;9.10;;;3.22;;
76894;SDS011;65855;42.030;13.078;2023-10-08T12:53:30;7.57;;;3.15;;
76894;SDS011;65855;42.030;13.078;2023-10-08T12:56:02;7.93;;;2.88;;
76894;SDS011;65855;42.030;13.078;2023-10-08T12:58:32;6.72;;;3.03;;
76894;SDS011;65855;42.030;13.078;2023-10-08T13:01:12;7.00;;;2.92;;
76894;SDS011;65855;42.030;13.078;2023-10-08T13:03:38;5.80;;;2.90;;
76894;SDS011;65855;42.030;13.078;2023-10-08T13:06:10;7.40;;;3.40;;
76894;SDS011;65855;42.030;13.078;2023-10-08T13:08:40;7.43;;;3.95;;
76894;SDS011;65855;42.030;13.078;2023-10-08T13:11:06;7.60;;;3.35;;
76894;SDS011;65855;42.030;13.078;2023-10-08T13:13:32;6.32;;;3.15;;
76894;SDS011;65855;42.030;13.078;2023-10-08T13:15:59;6.70;;;3.15;;
76894;SDS011;65855;42.030;13.078;2023-10-08T13:18:28;8.70;;;3.20;;
76894;SDS011;65855;42.030;13.078;2023-10-08T13:20:54;6.97;;;3.17;;
76894;SDS011;65855;42.030;13.078;2023-10-08T13:23:20;6.50;;;2.67;;
76894;SDS011;65855;42.030;13.078;2023-10-08T13:25:48;7.15;;;3.30;;
76894;SDS011;65855;42.030;13.078;2023-10-08T13:28:19;6.30;;;2.78;;
76894;SDS011;65855;42.030;13.078;2023-10-08T13:30:51;8.25;;;3.30;;
76894;SDS011;65855;42.030;13.078;2023-10-08T13:33:20;7.78;;;2.38;;
76894;SDS011;65855;42.030;13.078;2023-10-08T13:35:47;7.07;;;2.97;;
76894;SDS011;65855;42.030;13.078;2023-10-08T13:38:19;6.60;;;2.50;;
76894;SDS011;65855;42.030;13.078;2023-10-08T13:40:48;10.40;;;3.60;;
76894;SDS011;65855;42.030;13.078;2023-10-08T13:43:33;9.40;;;3.35;;
76894;SDS011;65855;42.030;13.078;2023-10-08T13:46:03;8.27;;;4.13;;
76894;SDS011;65855;42.030;13.078;2023-10-08T13:48:33;8.65;;;3.90;;
76894;SDS011;65855;42.030;13.078;2023-10-08T13:51:01;7.68;;;3.85;;
76894;SDS011;65855;42.030;13.078;2023-10-08T13:53:28;11.55;;;4.18;;
76894;SDS011;65855;42.030;13.078;2023-10-08T13:55:58;7.88;;;4.32;;
76894;SDS011;65855;42.030;13.078;2023-10-08T13:58:30;8.70;;;3.95;;
76894;SDS011;65855;42.030;13.078;2023-10-08T14:00:56;8.60;;;4.28;;
76894;SDS011;65855;42.030;13.078;2023-10-08T14:03:25;7.80;;;3.10;;
76894;SDS011;65855;42.030;13.078;2023-10-08T14:05:56;9.80;;;4.32;;
76894;SDS011;65855;42.030;13.078;2023-10-08T14:08:26;7.80;;;3.63;;
76894;SDS011;65855;42.030;13.078;2023-10-08T14:10:54;8.98;;;4.47;;
76894;SDS011;65855;42.030;13.078;2023-10-08T14:13:25;9.43;;;4.50;;
76894;SDS011;65855;42.030;13.078;2023-10-08T14:15:52;8.20;;;4.75;;
76894;SDS011;65855;42.030;13.078;2023-10-08T14:18:21;8.57;;;3.63;;
76894;SDS011;65855;42.030;13.078;2023-10-08T14:20:57;9.80;;;4.78;;
76894;SDS011;65855;42.030;13.078;2023-10-08T14:23:22;9.48;;;4.45;;
76894;SDS011;65855;42.030;13.078;2023-10-08T14:25:50;8.98;;;4.57;;
76894;SDS011;65855;42.030;13.078;2023-10-08T14:28:19;8.05;;;4.65;;
76894;SDS011;65855;42.030;13.078;2023-10-08T14:30:48;9.82;;;4.85;;
76894;SDS011;65855;42.030;13.078;2023-10-08T14:33:19;9.30;;;3.60;;
76894;SDS011;65855;42.030;13.078;2023-10-08T14:35:50;8.90;;;4.30;;
76894;SDS011;65855;42.030;13.078;2023-10-08T14:38:34;10.00;;;4.10;;
76894;SDS011;65855;42.030;13.078;2023-10-08T14:41:22;8.07;;;4.00;;
76894;SDS011;65855;42.030;13.078;2023-10-08T14:44:06;9.45;;;4.32;;
76894;SDS011;65855;42.030;13.078;2023-10-08T14:46:32;8.75;;;3.80;;
76894;SDS011;65855;42.030;13.078;2023-10-08T14:48:59;9.07;;;3.60;;
76894;SDS011;65855;42.030;13.078;2023-10-08T14:51:27;8.23;;;4.28;;
76894;SDS011;65855;42.030;13.078;2023-10-08T14:53:52;8.68;;;4.13;;
76894;SDS011;65855;42.030;13.078;2023-10-08T14:56:18;8.80;;;3.97;;
76894;SDS011;65855;42.030;13.078;2023-10-08T14:58:44;8.77;;;4.55;;
76894;SDS011;65855;42.030;13.078;2023-10-08T15:01:12;9.63;;;3.75;;
76894;SDS011;65855;42.030;13.078;2023-10-08T15:03:39;8.98;;;4.68;;
76894;SDS011;65855;42.030;13.078;2023-10-08T15:06:05;8.68;;;4.63;;
76894;SDS011;65855;42.030;13.078;2023-10-08T15:08:32;9.07;;;3.78;;
76894;SDS011;65855;42.030;13.078;2023-10-08T15:10:58;10.07;;;4.85;;
76894;SDS011;65855;42.030;13.078;2023-10-08T15:13:25;8.07;;;4.32;;
76894;SDS011;65855;42.030;13.078;2023-10-08T15:15:51;8.55;;;4.40;;
76894;SDS011;65855;42.030;13.078;2023-10-08T15:18:16;8.77;;;3.88;;
76894;SDS011;65855;42.030;13.078;2023-10-08T15:20:43;11.77;;;3.85;;